Time;durP1;ratioP1;P1;durP2;ratioP2;P2;SDS_P1;SDS_P2;PMS_P1;PMS_P2;Temp;Humidity;BMP_temperature;BMP_pressure;BME280_temperature;BME280_humidity;BME280_pressure;Samples;Min_cycle;Max_cycle;Signal;HPM_P1;HPM_P2
2023/01/10 00:00:31;;;;;;;16.57;8.30;;;;;;;;;;4913910;29;20224;-83
2023/01/10 00:03:03;;;;;;;14.47;8.30;;;;;;;;;;4924805;29;20236;-82
2023/01/10 00:05:31;;;;;;;11.63;8.70;;;;;;;;;;4943275;29;20236;-83
2023/01/10 00:08:07;;;;;;;11.57;8.67;;;;;;;;;;4907725;29;20216;-82
2023/01/10 00:10:33;;;;;;;13.17;8.20;;;;;;;;;;4914647;29;20307;-88
2023/01/10 00:15:44;;;;;;;14.77;8.10;;;;;;;;;;4928070;29;20232;-85
2023/01/10 00:18:10;;;;;;;17.20;8.17;;;;;;;;;;4902570;29;20232;-85
2023/01/10 00:20:38;;;;;;;9.23;7.13;;;;;;;;;;4902643;29;20292;-86
2023/01/10 00:23:03;;;;;;;13.50;8.07;;;;;;;;;;4916801;29;20273;-85
2023/01/10 00:25:33;;;;;;;12.63;8.10;;;;;;;;;;4899085;29;20232;-88
2023/01/10 00:30:59;;;;;;;12.20;7.63;;;;;;;;;;4899406;29;20224;-85
2023/01/10 00:33:28;;;;;;;17.20;8.47;;;;;;;;;;4901248;29;20228;-85
2023/01/10 00:35:54;;;;;;;13.87;8.33;;;;;;;;;;4897709;29;20292;-85
2023/01/10 00:38:22;;;;;;;18.00;9.00;;;;;;;;;;4908601;29;20228;-85
2023/01/10 00:40:49;;;;;;;11.47;8.27;;;;;;;;;;4917459;29;20228;-85
2023/01/10 00:46:01;;;;;;;12.10;8.77;;;;;;;;;;4912602;29;20233;-87
2023/01/10 00:48:29;;;;;;;11.83;8.53;;;;;;;;;;4917107;29;20220;-85
2023/01/10 00:50:55;;;;;;;11.20;8.70;;;;;;;;;;4904291;29;20244;-84
2023/01/10 00:53:21;;;;;;;11.00;9.33;;;;;;;;;;4890317;29;20241;-84
2023/01/10 00:55:49;;;;;;;10.17;9.20;;;;;;;;;;4897312;29;20221;-84
2023/01/10 00:58:16;;;;;;;14.73;9.20;;;;;;;;;;4897606;29;20227;-85
2023/01/10 01:00:45;;;;;;;12.57;9.27;;;;;;;;;;4896433;29;20719;-84
2023/01/10 01:03:17;;;;;;;15.47;8.67;;;;;;;;;;4916778;29;20565;-85
2023/01/10 01:05:44;;;;;;;10.83;9.37;;;;;;;;;;4919488;29;20307;-85
2023/01/10 01:08:15;;;;;;;15.90;9.60;;;;;;;;;;4900177;29;20224;-84
2023/01/10 01:10:42;;;;;;;11.83;9.33;;;;;;;;;;4887305;29;20711;-87
2023/01/10 01:13:19;;;;;;;11.77;9.57;;;;;;;;;;4895195;29;20646;-85
2023/01/10 01:15:44;;;;;;;13.47;8.77;;;;;;;;;;4905461;29;20244;-87
2023/01/10 01:18:14;;;;;;;14.10;9.27;;;;;;;;;;4928908;29;20228;-87
2023/01/10 01:20:40;;;;;;;11.90;8.73;;;;;;;;;;4896268;29;20223;-86
2023/01/10 01:23:06;;;;;;;13.97;9.23;;;;;;;;;;4921826;29;20264;-87
2023/01/10 01:25:31;;;;;;;10.87;9.77;;;;;;;;;;4902642;29;20276;-87
2023/01/10 01:27:57;;;;;;;17.13;11.83;;;;;;;;;;4900612;29;20224;-87
2023/01/10 01:30:25;;;;;;;14.80;9.90;;;;;;;;;;4904705;29;20228;-86
2023/01/10 01:32:50;;;;;;;16.53;9.67;;;;;;;;;;4913751;29;20239;-86
2023/01/10 01:35:21;;;;;;;14.47;10.13;;;;;;;;;;4886328;29;20244;-85
2023/01/10 01:37:49;;;;;;;11.77;10.47;;;;;;;;;;4904276;29;20232;-86
2023/01/10 01:40:18;;;;;;;12.70;10.57;;;;;;;;;;4894553;29;20249;-86
2023/01/10 01:42:46;;;;;;;16.10;11.47;;;;;;;;;;4930945;29;20225;-84
2023/01/10 01:45:13;;;;;;;16.47;11.63;;;;;;;;;;4911063;29;20232;-85
2023/01/10 01:48:14;;;;;;;16.73;14.03;;;;;;;;;;4923707;29;20250;-86
2023/01/10 01:50:54;;;;;;;14.97;10.13;;;;;;;;;;4899603;29;20275;-87
2023/01/10 01:53:29;;;;;;;13.50;11.27;;;;;;;;;;4930420;29;20328;-86
2023/01/10 01:55:56;;;;;;;13.67;11.60;;;;;;;;;;4924257;29;20798;-86
2023/01/10 01:58:28;;;;;;;12.47;11.17;;;;;;;;;;4884575;29;20232;-85
2023/01/10 02:00:53;;;;;;;15.27;11.77;;;;;;;;;;4908232;29;20639;-86
2023/01/10 02:03:24;;;;;;;15.60;11.37;;;;;;;;;;4897333;29;20208;-88
2023/01/10 02:05:52;;;;;;;15.23;11.80;;;;;;;;;;4896696;29;20764;-86
2023/01/10 02:08:17;;;;;;;15.47;11.63;;;;;;;;;;4909082;29;20658;-85
2023/01/10 02:10:51;;;;;;;15.47;11.97;;;;;;;;;;4897893;29;20221;-87
2023/01/10 02:13:18;;;;;;;19.77;13.23;;;;;;;;;;4911613;29;20237;-87
2023/01/10 02:15:43;;;;;;;19.60;16.57;;;;;;;;;;4909216;29;20232;-88
2023/01/10 02:18:11;;;;;;;12.67;11.37;;;;;;;;;;4915734;29;20588;-85
2023/01/10 02:20:48;;;;;;;12.97;11.40;;;;;;;;;;4914708;29;20255;-85
2023/01/10 02:23:19;;;;;;;12.83;11.43;;;;;;;;;;4894551;29;20275;-85
2023/01/10 02:26:23;;;;;;;12.33;11.10;;;;;;;;;;4900359;29;20491;-86
2023/01/10 02:28:52;;;;;;;11.73;10.03;;;;;;;;;;4896860;29;20721;-82
2023/01/10 02:31:39;;;;;;;11.70;10.03;;;;;;;;;;4898236;29;20607;-86
2023/01/10 02:34:36;;;;;;;11.97;10.67;;;;;;;;;;4895309;29;20680;-84
2023/01/10 02:37:13;;;;;;;15.20;10.90;;;;;;;;;;4907783;29;20251;-85
2023/01/10 02:39:43;;;;;;;11.47;10.13;;;;;;;;;;4872850;29;20227;-85
2023/01/10 02:42:12;;;;;;;13.00;10.47;;;;;;;;;;4901061;29;20248;-85
2023/01/10 02:44:45;;;;;;;11.60;10.40;;;;;;;;;;4903623;29;20251;-87
2023/01/10 02:47:11;;;;;;;11.27;9.53;;;;;;;;;;4888890;29;20315;-86
2023/01/10 02:49:49;;;;;;;14.30;11.20;;;;;;;;;;4919275;29;20307;-87
2023/01/10 02:52:23;;;;;;;10.60;9.50;;;;;;;;;;4905547;29;20228;-85
2023/01/10 02:54:50;;;;;;;11.10;9.20;;;;;;;;;;4914482;29;20704;-84
2023/01/10 02:57:18;;;;;;;10.23;9.07;;;;;;;;;;4888070;29;20395;-85
2023/01/10 03:00:09;;;;;;;10.80;9.37;;;;;;;;;;4912320;29;20362;-86
2023/01/10 03:03:16;;;;;;;9.80;8.80;;;;;;;;;;4899750;29;20288;-85
2023/01/10 03:06:06;;;;;;;12.53;9.03;;;;;;;;;;4881138;29;20228;-85
2023/01/10 03:08:48;;;;;;;11.40;9.13;;;;;;;;;;4901565;29;20228;-84
2023/01/10 03:11:38;;;;;;;11.67;9.33;;;;;;;;;;4913401;29;20232;-85
2023/01/10 03:14:03;;;;;;;12.63;9.13;;;;;;;;;;4914868;29;20324;-86
2023/01/10 03:16:31;;;;;;;12.00;9.57;;;;;;;;;;4909328;29;20227;-86
2023/01/10 03:19:00;;;;;;;11.17;9.37;;;;;;;;;;4896749;29;20603;-86
2023/01/10 03:21:29;;;;;;;9.90;8.80;;;;;;;;;;4880320;29;20282;-83
2023/01/10 03:23:59;;;;;;;10.33;8.33;;;;;;;;;;4890267;29;20686;-83
2023/01/10 03:27:00;;;;;;;9.47;8.47;;;;;;;;;;4914510;29;20232;-85
2023/01/10 03:29:41;;;;;;;10.60;8.03;;;;;;;;;;4861877;29;20304;-83
2023/01/10 03:32:06;;;;;;;10.30;8.27;;;;;;;;;;4888385;29;20235;-84
2023/01/10 03:34:32;;;;;;;9.30;7.83;;;;;;;;;;4901521;29;20216;-83
2023/01/10 03:37:15;;;;;;;10.27;8.30;;;;;;;;;;4896509;29;20225;-85
2023/01/10 03:39:43;;;;;;;11.50;8.97;;;;;;;;;;4917505;29;20754;-85
2023/01/10 03:42:21;;;;;;;10.87;8.30;;;;;;;;;;4904165;29;20236;-84
2023/01/10 03:44:53;;;;;;;8.97;7.50;;;;;;;;;;4903772;29;20228;-84
2023/01/10 03:47:32;;;;;;;12.03;8.67;;;;;;;;;;4919080;29;20234;-84
2023/01/10 03:50:01;;;;;;;9.53;8.23;;;;;;;;;;4904101;29;20235;-84
2023/01/10 03:52:26;;;;;;;12.77;7.73;;;;;;;;;;4916259;29;20240;-85
2023/01/10 03:55:02;;;;;;;14.17;9.37;;;;;;;;;;4898633;29;20280;-83
2023/01/10 03:57:27;;;;;;;12.00;6.90;;;;;;;;;;4886386;29;20351;-85
2023/01/10 03:59:57;;;;;;;9.17;7.40;;;;;;;;;;4871931;29;20590;-85
2023/01/10 04:02:29;;;;;;;7.77;6.23;;;;;;;;;;4900563;29;20217;-84
2023/01/10 04:04:55;;;;;;;8.03;6.27;;;;;;;;;;4921092;29;21068;-85
2023/01/10 04:07:21;;;;;;;8.87;6.60;;;;;;;;;;4892472;29;20338;-86
2023/01/10 04:09:46;;;;;;;8.50;7.10;;;;;;;;;;4899863;29;20224;-86
2023/01/10 04:12:12;;;;;;;10.20;7.00;;;;;;;;;;4901506;29;20585;-85
2023/01/10 04:14:38;;;;;;;9.23;7.03;;;;;;;;;;4898139;29;20869;-87
2023/01/10 04:17:04;;;;;;;9.20;7.33;;;;;;;;;;4897735;29;20240;-83
2023/01/10 04:19:30;;;;;;;13.43;7.20;;;;;;;;;;4926004;29;20229;-83
2023/01/10 04:21:56;;;;;;;10.13;6.07;;;;;;;;;;4912099;29;20238;-84
2023/01/10 04:24:21;;;;;;;14.00;6.20;;;;;;;;;;4910764;29;20233;-84
2023/01/10 04:26:47;;;;;;;9.80;6.30;;;;;;;;;;4908599;29;21592;-85
2023/01/10 04:29:15;;;;;;;5.87;5.30;;;;;;;;;;4903317;29;20706;-85
2023/01/10 04:31:48;;;;;;;9.20;5.83;;;;;;;;;;4900210;29;20225;-84
2023/01/10 04:34:14;;;;;;;14.27;6.27;;;;;;;;;;4939555;29;20208;-85
2023/01/10 04:36:40;;;;;;;13.70;5.97;;;;;;;;;;4920344;29;20284;-83
2023/01/10 04:39:07;;;;;;;13.70;5.83;;;;;;;;;;4928144;29;20237;-88
2023/01/10 04:41:33;;;;;;;9.80;5.37;;;;;;;;;;4911833;29;20968;-84
2023/01/10 04:44:01;;;;;;;10.30;5.60;;;;;;;;;;4921517;29;20224;-85
2023/01/10 04:46:27;;;;;;;7.93;5.60;;;;;;;;;;4913499;29;20242;-89
2023/01/10 04:48:57;;;;;;;10.63;5.57;;;;;;;;;;4917087;29;20301;-87
2023/01/10 04:51:24;;;;;;;7.83;4.60;;;;;;;;;;4902107;29;20228;-85
2023/01/10 04:53:52;;;;;;;6.97;5.00;;;;;;;;;;4917578;29;20854;-86
2023/01/10 04:56:18;;;;;;;8.73;5.57;;;;;;;;;;4898618;29;20221;-87
2023/01/10 04:58:44;;;;;;;10.17;5.00;;;;;;;;;;4905534;29;20216;-86
2023/01/10 05:01:21;;;;;;;9.70;5.33;;;;;;;;;;4890212;29;20224;-85
2023/01/10 05:03:48;;;;;;;8.80;5.10;;;;;;;;;;4895061;29;20367;-86
2023/01/10 05:06:18;;;;;;;11.40;5.27;;;;;;;;;;4916663;29;20223;-86
2023/01/10 05:08:44;;;;;;;10.60;4.83;;;;;;;;;;4884021;29;20228;-87
2023/01/10 05:11:12;;;;;;;8.33;4.60;;;;;;;;;;4895178;29;20290;-86
2023/01/10 05:13:37;;;;;;;10.40;5.07;;;;;;;;;;4901471;29;20228;-87
2023/01/10 05:16:03;;;;;;;10.97;5.30;;;;;;;;;;4905366;29;20223;-88
2023/01/10 05:18:29;;;;;;;13.53;5.20;;;;;;;;;;4893862;29;20224;-83
2023/01/10 05:21:02;;;;;;;10.53;4.53;;;;;;;;;;4894126;29;20268;-87
2023/01/10 05:23:30;;;;;;;6.53;4.50;;;;;;;;;;4901648;29;20229;-85
2023/01/10 05:25:58;;;;;;;8.23;5.00;;;;;;;;;;4904294;29;20247;-87
2023/01/10 05:28:23;;;;;;;8.63;4.97;;;;;;;;;;4900217;29;20244;-87
2023/01/10 05:30:49;;;;;;;7.87;5.10;;;;;;;;;;4894271;29;20260;-86
2023/01/10 05:33:14;;;;;;;12.23;6.43;;;;;;;;;;4920353;29;20231;-86
2023/01/10 05:35:40;;;;;;;18.77;10.57;;;;;;;;;;4895652;29;20232;-85
2023/01/10 05:38:08;;;;;;;11.17;5.00;;;;;;;;;;4905296;29;20233;-87
2023/01/10 05:40:34;;;;;;;11.13;5.73;;;;;;;;;;4911300;29;20628;-84
2023/01/10 05:43:02;;;;;;;12.57;6.20;;;;;;;;;;4912821;29;20219;-86
2023/01/10 05:45:30;;;;;;;14.60;7.63;;;;;;;;;;4881327;29;20901;-86
2023/01/10 05:47:55;;;;;;;11.97;5.57;;;;;;;;;;4898561;29;20255;-86
2023/01/10 05:50:26;;;;;;;12.53;5.13;;;;;;;;;;4896855;29;20263;-87
2023/01/10 05:52:51;;;;;;;9.20;5.10;;;;;;;;;;4906425;29;20243;-86
2023/01/10 05:55:19;;;;;;;10.97;5.40;;;;;;;;;;4910247;29;20239;-87
2023/01/10 05:57:47;;;;;;;9.23;4.87;;;;;;;;;;4912027;29;20232;-86
2023/01/10 06:00:14;;;;;;;12.03;4.97;;;;;;;;;;4911346;29;20661;-85
2023/01/10 06:02:42;;;;;;;6.97;5.10;;;;;;;;;;4930683;29;20223;-88
2023/01/10 06:05:08;;;;;;;9.73;5.23;;;;;;;;;;4912402;29;20310;-87
2023/01/10 06:07:38;;;;;;;10.90;5.53;;;;;;;;;;4899238;29;20248;-87
2023/01/10 06:10:04;;;;;;;7.50;4.70;;;;;;;;;;4904180;29;20231;-87
2023/01/10 06:12:32;;;;;;;7.13;4.67;;;;;;;;;;4900323;29;20224;-86
2023/01/10 06:14:57;;;;;;;13.33;4.90;;;;;;;;;;4914712;29;20224;-86
2023/01/10 06:17:23;;;;;;;8.57;4.80;;;;;;;;;;4893362;29;20243;-84
2023/01/10 06:19:51;;;;;;;9.43;5.03;;;;;;;;;;4891935;29;20348;-85
2023/01/10 06:22:19;;;;;;;7.63;4.70;;;;;;;;;;4906801;29;20256;-87
2023/01/10 06:24:50;;;;;;;15.87;10.00;;;;;;;;;;4897045;29;20221;-85
2023/01/10 06:27:15;;;;;;;11.80;5.83;;;;;;;;;;4913460;29;20244;-84
2023/01/10 06:29:41;;;;;;;7.53;4.50;;;;;;;;;;4904335;29;20208;-85
2023/01/10 06:32:06;;;;;;;8.37;5.27;;;;;;;;;;4916800;29;20228;-85
2023/01/10 06:34:32;;;;;;;8.53;4.73;;;;;;;;;;4911134;29;20247;-83
2023/01/10 06:36:57;;;;;;;11.37;4.70;;;;;;;;;;4915000;29;20224;-86
2023/01/10 06:39:23;;;;;;;11.73;5.30;;;;;;;;;;4903654;29;20224;-85
2023/01/10 06:41:49;;;;;;;8.00;5.20;;;;;;;;;;4907793;29;20223;-86
2023/01/10 06:44:19;;;;;;;9.77;5.37;;;;;;;;;;4910983;29;20224;-85
2023/01/10 06:46:44;;;;;;;8.77;4.70;;;;;;;;;;4927390;29;20242;-85
2023/01/10 06:49:12;;;;;;;9.30;4.43;;;;;;;;;;4911075;29;20216;-84
2023/01/10 06:51:37;;;;;;;11.40;4.80;;;;;;;;;;4893276;29;20225;-87
2023/01/10 06:54:03;;;;;;;13.43;5.00;;;;;;;;;;4920042;29;20233;-86
2023/01/10 06:56:28;;;;;;;9.37;4.20;;;;;;;;;;4925738;29;20235;-86
2023/01/10 06:58:54;;;;;;;9.43;4.57;;;;;;;;;;4893792;29;20692;-87
2023/01/10 07:01:20;;;;;;;8.50;4.87;;;;;;;;;;4922063;29;20232;-87
2023/01/10 07:03:46;;;;;;;15.10;9.77;;;;;;;;;;4905807;29;20224;-87
2023/01/10 07:06:11;;;;;;;17.07;7.40;;;;;;;;;;4924249;29;20959;-86
2023/01/10 07:08:42;;;;;;;17.87;10.40;;;;;;;;;;4891750;29;20224;-85
2023/01/10 07:11:08;;;;;;;13.53;7.67;;;;;;;;;;4925706;29;20604;-86
2023/01/10 07:13:38;;;;;;;10.73;5.10;;;;;;;;;;4910122;29;20235;-86
2023/01/10 07:16:11;;;;;;;10.33;4.50;;;;;;;;;;4911469;29;20232;-86
2023/01/10 07:18:37;;;;;;;11.83;4.83;;;;;;;;;;4910542;29;20284;-86
2023/01/10 07:21:03;;;;;;;6.33;4.20;;;;;;;;;;4919666;29;20216;-85
2023/01/10 07:23:31;;;;;;;8.23;4.30;;;;;;;;;;4929895;29;20215;-85
2023/01/10 07:25:57;;;;;;;8.77;4.47;;;;;;;;;;4919397;29;20323;-87
2023/01/10 07:28:25;;;;;;;8.07;4.00;;;;;;;;;;4917395;29;20232;-86
2023/01/10 07:30:51;;;;;;;9.57;4.00;;;;;;;;;;4905566;29;20594;-86
2023/01/10 07:33:19;;;;;;;9.70;4.37;;;;;;;;;;4918168;29;20217;-87
2023/01/10 07:35:46;;;;;;;11.00;4.30;;;;;;;;;;4905424;29;20216;-87
2023/01/10 07:38:14;;;;;;;10.80;4.53;;;;;;;;;;4893570;29;20204;-86
2023/01/10 07:40:40;;;;;;;8.23;4.73;;;;;;;;;;4922853;29;20224;-88
2023/01/10 07:43:08;;;;;;;9.90;4.43;;;;;;;;;;4904061;29;20579;-87
2023/01/10 07:45:34;;;;;;;8.73;4.60;;;;;;;;;;4904303;29;20223;-85
2023/01/10 07:48:03;;;;;;;12.97;8.90;;;;;;;;;;4917124;29;20715;-85
2023/01/10 07:50:31;;;;;;;23.43;13.87;;;;;;;;;;4903742;29;20343;-87
2023/01/10 07:52:58;;;;;;;15.07;7.70;;;;;;;;;;4919029;29;20232;-86
2023/01/10 07:55:26;;;;;;;10.20;4.43;;;;;;;;;;4903441;29;20737;-87
2023/01/10 07:57:52;;;;;;;8.87;4.23;;;;;;;;;;4918174;29;20227;-86
2023/01/10 08:04:04;;;;;;;8.13;4.20;;;;;;;;;;4914600;29;20243;-86
2023/01/10 08:06:33;;;;;;;10.53;4.50;;;;;;;;;;4903095;29;20500;-87
2023/01/10 08:09:04;;;;;;;10.50;4.67;;;;;;;;;;4904994;29;20228;-86
2023/01/10 08:11:33;;;;;;;6.30;3.97;;;;;;;;;;4910954;29;20227;-85
2023/01/10 08:13:58;;;;;;;7.97;3.77;;;;;;;;;;4909741;29;20236;-84
2023/01/10 08:16:24;;;;;;;8.03;5.07;;;;;;;;;;4908611;29;20232;-86
2023/01/10 08:18:52;;;;;;;7.57;4.23;;;;;;;;;;4911941;29;20228;-87
2023/01/10 08:21:20;;;;;;;11.83;4.47;;;;;;;;;;4908102;29;20228;-86
2023/01/10 08:23:46;;;;;;;11.87;5.10;;;;;;;;;;4923307;29;20228;-86
2023/01/10 08:26:11;;;;;;;7.77;4.50;;;;;;;;;;4919884;29;20820;-85
2023/01/10 08:28:37;;;;;;;9.83;5.07;;;;;;;;;;4909789;29;20231;-85
2023/01/10 08:31:09;;;;;;;11.10;5.10;;;;;;;;;;4916923;29;20238;-86
2023/01/10 08:33:38;;;;;;;9.63;5.10;;;;;;;;;;4921877;29;20608;-85
2023/01/10 08:36:03;;;;;;;8.33;4.53;;;;;;;;;;4923053;29;20298;-84
2023/01/10 08:38:29;;;;;;;9.33;4.90;;;;;;;;;;4923814;29;20793;-86
2023/01/10 08:40:56;;;;;;;10.10;5.77;;;;;;;;;;4897187;29;20591;-85
2023/01/10 08:43:22;;;;;;;10.17;6.90;;;;;;;;;;4929601;29;20219;-85
2023/01/10 08:45:48;;;;;;;11.87;6.37;;;;;;;;;;4923859;29;20228;-85
2023/01/10 08:48:14;;;;;;;13.77;8.30;;;;;;;;;;4941563;29;20235;-88
2023/01/10 08:50:39;;;;;;;16.33;6.57;;;;;;;;;;4925381;29;20224;-86
2023/01/10 08:53:05;;;;;;;12.00;6.70;;;;;;;;;;4908345;29;20239;-84
2023/01/10 08:55:34;;;;;;;12.00;8.53;;;;;;;;;;4945431;29;20228;-84
2023/01/10 08:58:02;;;;;;;13.47;7.37;;;;;;;;;;4921110;29;20236;-88
2023/01/10 09:00:28;;;;;;;11.63;6.00;;;;;;;;;;4944932;28;20242;-85
2023/01/10 09:02:53;;;;;;;11.23;5.53;;;;;;;;;;4913649;29;20975;-84
2023/01/10 09:05:19;;;;;;;8.67;5.33;;;;;;;;;;4914061;29;20223;-85
2023/01/10 09:07:51;;;;;;;13.10;7.17;;;;;;;;;;4909354;29;20227;-85
2023/01/10 09:10:20;;;;;;;14.77;6.80;;;;;;;;;;4911936;29;20231;-86
2023/01/10 09:12:54;;;;;;;8.30;5.97;;;;;;;;;;4932290;29;20322;-85
2023/01/10 09:15:21;;;;;;;15.30;8.83;;;;;;;;;;4931902;29;20259;-84
2023/01/10 09:17:48;;;;;;;13.60;7.70;;;;;;;;;;4925964;29;20271;-86
2023/01/10 09:20:17;;;;;;;14.27;8.70;;;;;;;;;;4936961;29;20227;-87
2023/01/10 09:22:49;;;;;;;14.20;7.20;;;;;;;;;;4934472;29;20264;-85
2023/01/10 09:25:15;;;;;;;12.20;6.63;;;;;;;;;;4934660;29;20243;-85
2023/01/10 09:27:45;;;;;;;12.47;7.80;;;;;;;;;;4904897;29;20224;-86
2023/01/10 09:30:14;;;;;;;11.93;6.30;;;;;;;;;;4932077;29;20655;-85
2023/01/10 09:32:48;;;;;;;10.83;6.50;;;;;;;;;;4947221;29;20223;-86
2023/01/10 09:35:13;;;;;;;10.73;5.63;;;;;;;;;;4934818;29;20232;-84
2023/01/10 09:37:39;;;;;;;11.40;5.57;;;;;;;;;;4934710;29;20757;-85
2023/01/10 09:40:14;;;;;;;10.27;6.33;;;;;;;;;;4928833;29;20232;-83
2023/01/10 09:42:54;;;;;;;12.23;6.60;;;;;;;;;;4922131;29;20246;-85
2023/01/10 09:45:50;;;;;;;11.10;5.63;;;;;;;;;;4917431;29;20232;-84
2023/01/10 09:48:23;;;;;;;13.80;5.83;;;;;;;;;;4919673;29;20236;-86
2023/01/10 09:50:58;;;;;;;11.33;6.47;;;;;;;;;;4941461;29;20220;-84
2023/01/10 09:53:24;;;;;;;14.23;6.77;;;;;;;;;;4937136;29;20227;-83
2023/01/10 09:55:56;;;;;;;13.00;5.63;;;;;;;;;;4922774;29;20236;-84
2023/01/10 09:58:28;;;;;;;12.40;5.97;;;;;;;;;;4943612;28;20222;-85
2023/01/10 10:01:17;;;;;;;10.17;5.87;;;;;;;;;;4915596;29;20226;-83
2023/01/10 10:04:04;;;;;;;9.47;6.00;;;;;;;;;;4929751;29;20231;-85
2023/01/10 10:06:33;;;;;;;13.17;5.47;;;;;;;;;;4935679;29;20262;-83
2023/01/10 10:09:03;;;;;;;12.80;6.07;;;;;;;;;;4920526;29;20235;-83
2023/01/10 10:11:35;;;;;;;9.20;6.03;;;;;;;;;;4915692;29;20231;-85
2023/01/10 10:14:25;;;;;;;11.53;5.80;;;;;;;;;;4926731;29;20619;-84
2023/01/10 10:16:54;;;;;;;10.63;6.13;;;;;;;;;;4920265;29;20223;-88
2023/01/10 10:19:41;;;;;;;16.30;5.73;;;;;;;;;;4935369;29;20250;-84
2023/01/10 10:22:16;;;;;;;9.13;5.63;;;;;;;;;;4940418;29;20258;-84
2023/01/10 10:25:18;;;;;;;9.70;5.57;;;;;;;;;;4958452;29;20219;-83
2023/01/10 10:27:58;;;;;;;11.40;6.17;;;;;;;;;;4927115;29;20221;-86
2023/01/10 10:30:35;;;;;;;11.17;7.03;;;;;;;;;;4960970;29;20261;-86
2023/01/10 10:33:10;;;;;;;18.93;10.03;;;;;;;;;;4929086;29;20242;-83
2023/01/10 10:35:37;;;;;;;16.20;10.23;;;;;;;;;;4943519;29;20646;-85
2023/01/10 10:38:08;;;;;;;17.40;9.83;;;;;;;;;;4938858;29;20219;-87
2023/01/10 10:40:36;;;;;;;14.50;8.87;;;;;;;;;;4965567;28;20234;-84
2023/01/10 10:43:20;;;;;;;14.90;8.90;;;;;;;;;;4941218;29;20687;-85
2023/01/10 10:46:18;;;;;;;20.30;14.50;;;;;;;;;;4926874;29;20227;-84
2023/01/10 10:48:53;;;;;;;27.63;21.70;;;;;;;;;;4911645;29;20612;-83
2023/01/10 10:51:36;;;;;;;9.13;7.73;;;;;;;;;;4929648;29;20290;-85
2023/01/10 10:54:02;;;;;;;8.83;7.10;;;;;;;;;;4951001;29;20239;-83
2023/01/10 10:56:27;;;;;;;10.10;7.40;;;;;;;;;;4944441;29;20239;-84
2023/01/10 10:58:56;;;;;;;12.77;7.00;;;;;;;;;;4926428;29;20246;-86
2023/01/10 11:01:24;;;;;;;9.33;7.07;;;;;;;;;;4936245;29;20620;-86
2023/01/10 11:04:07;;;;;;;11.87;6.90;;;;;;;;;;4921772;29;20247;-84
2023/01/10 11:06:33;;;;;;;13.07;6.53;;;;;;;;;;4944121;29;20239;-84
2023/01/10 11:09:02;;;;;;;8.30;6.00;;;;;;;;;;4942478;29;20231;-84
2023/01/10 11:11:36;;;;;;;13.27;6.93;;;;;;;;;;4934607;29;20698;-84
2023/01/10 11:14:03;;;;;;;11.23;6.33;;;;;;;;;;4943461;29;20266;-85
2023/01/10 11:16:39;;;;;;;9.20;5.40;;;;;;;;;;4938949;29;20235;-86
2023/01/10 11:19:12;;;;;;;9.20;6.03;;;;;;;;;;4935261;29;20284;-86
2023/01/10 11:21:39;;;;;;;10.50;6.23;;;;;;;;;;4956464;28;20239;-85
2023/01/10 11:24:18;;;;;;;7.77;5.67;;;;;;;;;;4926997;28;20234;-87
2023/01/10 11:26:43;;;;;;;14.63;6.30;;;;;;;;;;4940358;29;20352;-85
2023/01/10 11:29:19;;;;;;;10.50;5.73;;;;;;;;;;4943578;28;20216;-84
2023/01/10 11:31:47;;;;;;;11.57;6.20;;;;;;;;;;4933571;29;20232;-84
2023/01/10 11:34:19;;;;;;;15.97;6.33;;;;;;;;;;4917257;29;20251;-86
2023/01/10 11:37:17;;;;;;;11.80;6.37;;;;;;;;;;4944750;29;20241;-84
2023/01/10 11:39:43;;;;;;;11.10;5.53;;;;;;;;;;4927869;29;20223;-82
2023/01/10 11:42:24;;;;;;;10.00;6.07;;;;;;;;;;4944286;29;20231;-86
2023/01/10 11:44:49;;;;;;;11.57;5.33;;;;;;;;;;4944036;29;20228;-84
2023/01/10 11:47:19;;;;;;;11.80;5.83;;;;;;;;;;4919078;29;20231;-83
2023/01/10 11:49:45;;;;;;;14.00;6.00;;;;;;;;;;4892843;29;20899;-84
2023/01/10 11:52:22;;;;;;;10.00;6.30;;;;;;;;;;4935272;29;20228;-84
2023/01/10 11:54:50;;;;;;;14.03;6.17;;;;;;;;;;4922335;29;20719;-83
2023/01/10 11:57:17;;;;;;;9.00;5.83;;;;;;;;;;4937119;29;20310;-84
2023/01/10 11:59:57;;;;;;;12.30;5.93;;;;;;;;;;4921132;29;20698;-83
2023/01/10 12:02:25;;;;;;;13.83;7.03;;;;;;;;;;4939447;29;20227;-84
2023/01/10 12:04:51;;;;;;;15.97;7.47;;;;;;;;;;4925191;29;20224;-87
2023/01/10 12:07:17;;;;;;;10.67;5.37;;;;;;;;;;4906217;29;20713;-86
2023/01/10 12:09:58;;;;;;;10.80;5.67;;;;;;;;;;4929253;29;20299;-83
2023/01/10 12:12:30;;;;;;;16.77;9.03;;;;;;;;;;4927410;29;20286;-85
2023/01/10 12:15:30;;;;;;;16.00;9.20;;;;;;;;;;4931912;29;20216;-84
2023/01/10 12:17:58;;;;;;;21.27;13.27;;;;;;;;;;4931066;29;20226;-84
2023/01/10 12:20:32;;;;;;;10.70;5.67;;;;;;;;;;4937983;29;20230;-82
2023/01/10 12:23:04;;;;;;;10.47;6.13;;;;;;;;;;4940406;29;20232;-86
2023/01/10 12:25:39;;;;;;;13.63;6.40;;;;;;;;;;4931187;29;20238;-86
2023/01/10 12:28:20;;;;;;;13.10;9.07;;;;;;;;;;4922838;29;20233;-85
2023/01/10 12:30:51;;;;;;;11.63;6.03;;;;;;;;;;4921183;29;20219;-84
2023/01/10 12:33:26;;;;;;;9.80;5.53;;;;;;;;;;4930658;29;20618;-84
2023/01/10 12:36:10;;;;;;;9.80;5.03;;;;;;;;;;4934420;29;20681;-88
2023/01/10 12:44:26;;;;;;;9.03;5.10;;;;;;;;;;4916972;29;20231;-84
2023/01/10 12:47:18;;;;;;;12.90;5.53;;;;;;;;;;4944820;29;20279;-87
2023/01/10 12:50:04;;;;;;;10.90;5.17;;;;;;;;;;4937400;29;20224;-84
2023/01/10 12:52:44;;;;;;;8.70;5.03;;;;;;;;;;4939673;29;20224;-86
2023/01/10 12:55:19;;;;;;;7.57;4.90;;;;;;;;;;4940183;29;20238;-86
2023/01/10 12:57:52;;;;;;;11.77;4.80;;;;;;;;;;4906337;29;20236;-85
2023/01/10 13:00:27;;;;;;;8.90;4.83;;;;;;;;;;4920969;29;20366;-88
2023/01/10 13:02:54;;;;;;;11.97;4.90;;;;;;;;;;4924453;29;20223;-86
2023/01/10 13:05:25;;;;;;;8.47;4.73;;;;;;;;;;4926863;29;20608;-85
2023/01/10 13:07:52;;;;;;;14.17;6.13;;;;;;;;;;4931739;29;20219;-84
2023/01/10 13:10:26;;;;;;;10.83;4.90;;;;;;;;;;4909653;28;20239;-87
2023/01/10 13:13:05;;;;;;;9.03;5.03;;;;;;;;;;4914774;29;20243;-87
2023/01/10 13:15:36;;;;;;;9.70;4.90;;;;;;;;;;4947686;28;20219;-86
2023/01/10 13:18:14;;;;;;;15.80;5.50;;;;;;;;;;4924013;29;20235;-86
2023/01/10 13:20:45;;;;;;;11.63;4.87;;;;;;;;;;4943999;29;20267;-86
2023/01/10 13:23:20;;;;;;;9.57;4.67;;;;;;;;;;4925042;28;20255;-84
2023/01/10 13:25:53;;;;;;;11.80;5.10;;;;;;;;;;4927408;29;20232;-86
2023/01/10 13:28:21;;;;;;;11.07;4.80;;;;;;;;;;4920361;29;20231;-85
2023/01/10 13:30:51;;;;;;;11.67;5.20;;;;;;;;;;4924230;29;20322;-85
2023/01/10 13:33:26;;;;;;;10.47;5.60;;;;;;;;;;4922103;29;20239;-87
2023/01/10 13:35:53;;;;;;;12.23;4.77;;;;;;;;;;4951657;28;20294;-87
2023/01/10 13:38:29;;;;;;;14.93;7.83;;;;;;;;;;4924323;29;20224;-85
2023/01/10 13:44:05;;;;;;;9.10;5.47;;;;;;;;;;4937075;29;20225;-87
2023/01/10 13:46:39;;;;;;;12.53;5.77;;;;;;;;;;4908175;29;20234;-86
2023/01/10 13:49:10;;;;;;;11.93;5.93;;;;;;;;;;4925653;29;20283;-84
2023/01/10 13:51:37;;;;;;;15.63;6.30;;;;;;;;;;4924067;29;20223;-86
2023/01/10 13:54:03;;;;;;;14.57;6.40;;;;;;;;;;4924551;29;20260;-88
2023/01/10 13:56:39;;;;;;;9.47;5.00;;;;;;;;;;4933657;29;20236;-86
2023/01/10 14:04:32;;;;;;;11.37;5.87;;;;;;;;;;4938668;29;20314;-88
2023/01/10 14:07:02;;;;;;;11.90;6.17;;;;;;;;;;4926520;29;20226;-86
2023/01/10 14:09:31;;;;;;;15.43;6.30;;;;;;;;;;4940503;29;20667;-88
2023/01/10 14:12:00;;;;;;;10.13;5.53;;;;;;;;;;4942946;29;20779;-84
2023/01/10 14:14:38;;;;;;;9.77;5.43;;;;;;;;;;4939244;29;20231;-86
2023/01/10 14:17:25;;;;;;;13.37;6.33;;;;;;;;;;4936302;29;20231;-86
2023/01/10 14:20:21;;;;;;;8.90;5.30;;;;;;;;;;4933560;29;20246;-85
2023/01/10 14:23:04;;;;;;;10.33;5.50;;;;;;;;;;4926595;29;20231;-85
2023/01/10 14:25:34;;;;;;;13.47;5.47;;;;;;;;;;4938309;29;20287;-86
2023/01/10 14:28:02;;;;;;;8.17;5.17;;;;;;;;;;4932847;29;20208;-86
2023/01/10 14:30:35;;;;;;;7.17;4.90;;;;;;;;;;4940667;29;20228;-85
2023/01/10 14:33:23;;;;;;;14.73;6.97;;;;;;;;;;4925479;29;20347;-87
2023/01/10 14:35:50;;;;;;;8.33;5.30;;;;;;;;;;4919954;29;20223;-88
2023/01/10 14:38:29;;;;;;;14.67;5.73;;;;;;;;;;4937470;28;20228;-87
2023/01/10 14:41:03;;;;;;;14.03;5.70;;;;;;;;;;4936956;29;20235;-85
2023/01/10 14:43:45;;;;;;;8.20;5.00;;;;;;;;;;4943621;29;20231;-85
2023/01/10 14:46:16;;;;;;;11.93;5.43;;;;;;;;;;4939930;29;20230;-86
2023/01/10 14:48:48;;;;;;;12.20;5.30;;;;;;;;;;4936093;28;20226;-85
2023/01/10 14:51:27;;;;;;;11.30;5.33;;;;;;;;;;4938346;29;20274;-85
2023/01/10 14:54:12;;;;;;;7.97;5.10;;;;;;;;;;4925731;29;20404;-83
2023/01/10 14:56:42;;;;;;;9.93;6.17;;;;;;;;;;4955109;28;20235;-85
2023/01/10 14:59:26;;;;;;;13.17;6.00;;;;;;;;;;4927432;29;20240;-85
2023/01/10 15:02:13;;;;;;;12.00;5.93;;;;;;;;;;4961915;28;20215;-85
2023/01/10 15:05:08;;;;;;;9.07;5.67;;;;;;;;;;4955326;28;20314;-86
2023/01/10 15:07:34;;;;;;;8.70;5.20;;;;;;;;;;4935705;29;20380;-85
2023/01/10 15:10:16;;;;;;;10.67;5.90;;;;;;;;;;4940063;29;20779;-85
2023/01/10 15:12:46;;;;;;;11.17;5.37;;;;;;;;;;4938047;29;20260;-84
2023/01/10 15:15:16;;;;;;;14.07;5.80;;;;;;;;;;4943636;29;20243;-85
2023/01/10 15:17:42;;;;;;;10.23;5.93;;;;;;;;;;4924918;29;20255;-83
2023/01/10 15:20:15;;;;;;;10.73;5.60;;;;;;;;;;4931800;28;20227;-84
2023/01/10 15:22:49;;;;;;;16.67;6.10;;;;;;;;;;4933032;29;20224;-85